createdAt,value
2023-04-02T00:01:22.820Z,97857.84
2023-04-02T00:03:54.075Z,97902.16
2023-04-02T00:06:34.844Z,97910.91
2023-04-02T00:09:17.291Z,97899.44
2023-04-02T00:11:49.579Z,97904.81
2023-04-02T00:14:27.243Z,97909.63
2023-04-02T00:16:55.988Z,97879.25
2023-04-02T00:19:35.546Z,97909.63
2023-04-02T00:22:06.870Z,97911.28
2023-04-02T00:24:33.954Z,97839.84
2023-04-02T00:27:01.026Z,97864.47
2023-04-02T00:29:28.185Z,97906.00
2023-04-02T00:31:58.588Z,97923.56
2023-04-02T00:34:37.256Z,97916.84
2023-04-02T00:37:05.218Z,97871.59
2023-04-02T00:39:44.411Z,97921.34
2023-04-02T00:42:13.330Z,97887.31
2023-04-02T00:44:45.405Z,97922.50
2023-04-02T00:47:20.313Z,97923.06
2023-04-02T00:49:53.710Z,97928.94
2023-04-02T00:52:23.864Z,97872.75
2023-04-02T00:55:06.626Z,97942.75
2023-04-02T00:57:34.058Z,97937.00
2023-04-02T01:00:12.156Z,97895.56
2023-04-02T01:02:40.819Z,97856.16
2023-04-02T01:05:17.640Z,97933.31
2023-04-02T01:08:01.408Z,97951.97
2023-04-02T01:10:49.473Z,97926.25
2023-04-02T01:13:31.220Z,97924.25
2023-04-02T01:16:12.704Z,97937.66
2023-04-02T01:19:02.555Z,97929.06
2023-04-02T01:21:46.279Z,97926.47
2023-04-02T01:24:14.605Z,97763.78
2023-04-02T01:26:53.612Z,97919.72
2023-04-02T01:29:21.316Z,97925.50
2023-04-02T01:31:50.256Z,97923.59
2023-04-02T01:34:25.153Z,97782.78
2023-04-02T01:37:24.346Z,97929.50
2023-04-02T01:40:03.568Z,97930.59
2023-04-02T01:42:41.621Z,97898.47
2023-04-02T01:45:15.323Z,97955.44
2023-04-02T01:47:44.094Z,97914.09
2023-04-02T01:50:20.264Z,97935.75
2023-04-02T01:52:54.576Z,97914.81
2023-04-02T01:55:38.950Z,97922.59
2023-04-02T01:58:06.198Z,97953.72
2023-04-02T02:00:36.802Z,97795.16
2023-04-02T02:03:06.306Z,97938.13
2023-04-02T02:05:33.648Z,97939.78
2023-04-02T02:08:01.336Z,97937.06
2023-04-02T02:10:34.952Z,97958.09
2023-04-02T02:13:01.971Z,97958.69
2023-04-02T02:15:29.052Z,97912.19
2023-04-02T02:18:00.957Z,97989.97
2023-04-02T02:20:29.055Z,97810.63
2023-04-02T02:22:56.689Z,97968.66
2023-04-02T02:25:30.914Z,97941.31
2023-04-02T02:28:17.724Z,97977.97
2023-04-02T02:30:49.398Z,97926.13
2023-04-02T02:33:41.716Z,97968.06
2023-04-02T02:36:33.486Z,97977.72
2023-04-02T02:39:17.795Z,97997.47
2023-04-02T02:41:57.666Z,97969.94
2023-04-02T02:44:33.287Z,97976.09
2023-04-02T02:47:16.529Z,97996.00
2023-04-02T02:49:47.602Z,98003.41
2023-04-02T02:52:19.336Z,97986.78
2023-04-02T02:55:10.298Z,97999.63
2023-04-02T02:57:55.154Z,97964.59
2023-04-02T03:00:25.273Z,97947.59
2023-04-02T03:02:56.535Z,97885.13
2023-04-02T03:05:28.512Z,97993.38
2023-04-02T03:08:02.505Z,97988.59
2023-04-02T03:10:43.413Z,97989.38
2023-04-02T03:13:35.356Z,98000.34
2023-04-02T03:16:22.459Z,97977.13
2023-04-02T03:19:05.846Z,97971.97
2023-04-02T03:21:34.081Z,98005.56
2023-04-02T03:24:12.482Z,97917.03
2023-04-02T03:26:51.753Z,98029.09
2023-04-02T03:29:25.070Z,98006.19
2023-04-02T03:32:00.721Z,97992.84
2023-04-02T03:34:40.480Z,98018.34
2023-04-02T03:37:19.652Z,98015.88
2023-04-02T03:40:01.796Z,97977.63
2023-04-02T03:42:42.007Z,98032.00
2023-04-02T03:45:21.836Z,98003.50
2023-04-02T03:47:55.399Z,98039.66
2023-04-02T03:50:35.781Z,98041.06
2023-04-02T03:53:04.210Z,97877.03
2023-04-02T03:55:36.233Z,98048.59
2023-04-02T03:58:24.429Z,97946.38
2023-04-02T04:01:12.313Z,98045.97
2023-04-02T04:03:44.660Z,97981.97
2023-04-02T04:06:28.979Z,98050.09
2023-04-02T04:09:06.277Z,98051.63
2023-04-02T04:11:36.601Z,98012.19
2023-04-02T04:14:19.378Z,98053.75
2023-04-02T04:17:13.906Z,98058.22
2023-04-02T04:19:49.518Z,98060.09
2023-04-02T04:22:31.913Z,98074.13
2023-04-02T04:25:21.016Z,98058.25
2023-04-02T04:27:56.945Z,98075.53
2023-04-02T04:30:36.495Z,98078.84
2023-04-02T04:33:15.327Z,98077.22
2023-04-02T04:35:51.454Z,98102.00
2023-04-02T04:38:39.708Z,98017.66
2023-04-02T04:41:16.618Z,98053.13
2023-04-02T04:44:35.701Z,98117.53
2023-04-02T04:47:08.180Z,98092.13
2023-04-02T04:49:58.749Z,98102.94
2023-04-02T04:52:40.712Z,98116.38
2023-04-02T04:55:31.059Z,98106.59
2023-04-02T04:58:33.688Z,98115.19
2023-04-02T05:01:19.187Z,98119.66
2023-04-02T05:03:52.643Z,98127.88
2023-04-02T05:06:38.959Z,98133.78
2023-04-02T05:09:24.797Z,98138.59
2023-04-02T05:12:06.680Z,98124.94
2023-04-02T05:15:01.915Z,98145.78
2023-04-02T05:18:14.737Z,98138.88
2023-04-02T05:20:50.697Z,98133.44
2023-04-02T05:23:30.953Z,98167.78
2023-04-02T05:26:09.427Z,98143.41
2023-04-02T05:28:54.336Z,98171.31
2023-04-02T05:31:27.984Z,98160.47
2023-04-02T05:33:56.765Z,98165.78
2023-04-02T05:36:29.586Z,98167.44
2023-04-02T05:38:59.811Z,98130.16
2023-04-02T05:41:47.616Z,98164.13
2023-04-02T05:44:30.110Z,98176.72
2023-04-02T05:47:01.972Z,98183.66
2023-04-02T05:49:39.351Z,98186.13
2023-04-02T05:52:16.223Z,98123.19
2023-04-02T05:54:51.078Z,98191.88
2023-04-02T05:57:42.721Z,98167.13
2023-04-02T06:00:18.359Z,98042.41
2023-04-02T06:02:54.832Z,98146.38
2023-04-02T06:05:26.351Z,98178.41
2023-04-02T06:08:17.488Z,98197.72
2023-04-02T06:11:17.798Z,98196.75
2023-04-02T06:13:45.602Z,98172.72
2023-04-02T06:16:16.080Z,98176.09
2023-04-02T06:18:44.805Z,98204.63
2023-04-02T06:21:17.381Z,98187.06
2023-04-02T06:24:01.507Z,98212.75
2023-04-02T06:26:35.267Z,98139.09
2023-04-02T06:29:11.072Z,98224.94
2023-04-02T06:31:45.066Z,98222.22
2023-04-02T06:34:20.356Z,98193.78
2023-04-02T06:37:03.902Z,98219.88
2023-04-02T06:39:33.303Z,98211.44
2023-04-02T06:42:11.234Z,98214.25
2023-04-02T06:44:57.270Z,98186.13
2023-04-02T06:47:48.660Z,98111.50
2023-04-02T06:50:33.422Z,98165.28
2023-04-02T06:53:09.663Z,98239.22
2023-04-02T06:56:19.002Z,98264.75
2023-04-02T06:58:46.166Z,98268.63
2023-04-02T07:01:18.256Z,98232.25
2023-04-02T07:03:45.431Z,98276.06
2023-04-02T07:06:27.130Z,98280.56
2023-04-02T07:08:57.813Z,98286.78
2023-04-02T07:11:26.198Z,98247.00
2023-04-02T07:13:56.159Z,98295.34
2023-04-02T07:16:26.707Z,98315.16
2023-04-02T07:18:56.118Z,98302.78
2023-04-02T07:21:25.142Z,98320.19
2023-04-02T07:23:52.615Z,98317.25
2023-04-02T07:26:22.817Z,98264.81
2023-04-02T07:28:50.415Z,98281.53
2023-04-02T07:31:19.575Z,98277.19
2023-04-02T07:33:46.996Z,98325.63
2023-04-02T07:36:20.441Z,98349.38
2023-04-02T07:38:47.844Z,98337.63
2023-04-02T07:41:15.913Z,98265.06
2023-04-02T07:43:43.266Z,98332.88
2023-04-02T07:46:11.663Z,98346.19
2023-04-02T07:48:39.137Z,98358.56
2023-04-02T07:51:06.165Z,98156.34
2023-04-02T07:53:35.728Z,98354.22
2023-04-02T07:56:03.724Z,98359.84
2023-04-02T07:58:32.110Z,98372.34
2023-04-02T08:01:00.029Z,98353.69
2023-04-02T08:03:27.171Z,98360.28
2023-04-02T08:05:55.858Z,98369.47
2023-04-02T08:08:24.226Z,98373.94
2023-04-02T08:10:51.715Z,98386.72
2023-04-02T08:13:19.298Z,98393.66
2023-04-02T08:15:46.082Z,98377.25
2023-04-02T08:18:12.929Z,98366.53
2023-04-02T08:20:40.012Z,98394.72
2023-04-02T08:23:15.489Z,98358.03
2023-04-02T08:25:42.512Z,98409.81
2023-04-02T08:28:09.383Z,98411.88
2023-04-02T08:30:37.206Z,98415.88
2023-04-02T08:33:04.590Z,98427.50
2023-04-02T08:35:31.466Z,98394.34
2023-04-02T08:37:58.677Z,98387.16
2023-04-02T08:40:36.557Z,98419.84
2023-04-02T08:43:15.420Z,98424.75
2023-04-02T08:46:20.892Z,98430.25
2023-04-02T08:48:55.432Z,98415.91
2023-04-02T08:51:35.673Z,98412.34
2023-04-02T08:54:13.580Z,98435.81
2023-04-02T08:56:52.407Z,98395.22
2023-04-02T08:59:27.140Z,98414.78
2023-04-02T09:02:24.011Z,98348.31
2023-04-02T09:04:51.524Z,98432.06
2023-04-02T09:07:18.762Z,98453.19
2023-04-02T09:09:48.828Z,98452.16
2023-04-02T09:12:21.027Z,98403.16
2023-04-02T09:15:14.817Z,98378.25
2023-04-02T09:17:53.169Z,98466.84
2023-04-02T09:20:26.539Z,98442.56
2023-04-02T09:22:55.466Z,98477.09
2023-04-02T09:25:29.735Z,98444.50
2023-04-02T09:28:00.760Z,98503.09
2023-04-02T09:30:42.245Z,98489.59
2023-04-02T09:33:09.342Z,98416.13
2023-04-02T09:35:54.116Z,98495.00
2023-04-02T09:38:30.598Z,98499.78
2023-04-02T09:40:59.520Z,98486.66
2023-04-02T09:43:29.010Z,98487.72
2023-04-02T09:46:04.079Z,98491.19
2023-04-02T09:48:34.499Z,98507.22
2023-04-02T09:51:10.512Z,98440.44
2023-04-02T09:53:42.747Z,98519.69
2023-04-02T09:56:21.802Z,98476.72
2023-04-02T09:59:15.179Z,98516.84
2023-04-02T10:01:58.878Z,98500.50
2023-04-02T10:04:47.242Z,98522.38
2023-04-02T10:07:43.726Z,98529.41
2023-04-02T10:10:23.959Z,98533.44
2023-04-02T10:13:03.597Z,98525.28
2023-04-02T10:15:38.218Z,98546.91
2023-04-02T10:18:16.760Z,98538.97
2023-04-02T10:20:51.265Z,98564.94
2023-04-02T10:23:19.629Z,98568.97
2023-04-02T10:26:20.310Z,98504.66
2023-04-02T10:29:03.519Z,98578.56
2023-04-02T10:31:59.505Z,98608.66
2023-04-02T10:34:46.738Z,98584.41
2023-04-02T10:37:52.862Z,98584.41
2023-04-02T10:40:48.401Z,98586.44
2023-04-02T10:43:26.805Z,98607.94
2023-04-02T10:46:18.096Z,98594.09
2023-04-02T10:49:00.885Z,98592.00
2023-04-02T10:51:39.952Z,98604.47
2023-04-02T10:54:44.619Z,98611.84
2023-04-02T10:57:34.372Z,98612.03
2023-04-02T11:00:16.889Z,98618.88
2023-04-02T11:02:46.940Z,98627.25
2023-04-02T11:05:18.505Z,98624.56
2023-04-02T11:07:53.624Z,98479.78
2023-04-02T11:10:21.469Z,98638.72
2023-04-02T11:13:24.119Z,98615.75
2023-04-02T11:15:51.612Z,98494.84
2023-04-02T11:18:25.317Z,98648.03
2023-04-02T11:21:01.111Z,98617.00
2023-04-02T11:23:36.315Z,98664.63
2023-04-02T11:26:33.947Z,98665.03
2023-04-02T11:29:21.196Z,98669.09
2023-04-02T11:31:49.757Z,98673.41
2023-04-02T11:34:56.347Z,98678.13
2023-04-02T11:37:35.280Z,98681.97
2023-04-02T11:40:11.483Z,98684.34
2023-04-02T11:42:42.940Z,98689.22
2023-04-02T11:45:22.742Z,98694.94
2023-04-02T11:48:15.504Z,98675.03
2023-04-02T11:50:46.642Z,98697.81
2023-04-02T11:53:23.751Z,98716.66
2023-04-02T11:56:10.244Z,98710.19
2023-04-02T11:58:55.686Z,98710.38
2023-04-02T12:02:01.162Z,98714.75
2023-04-02T12:04:52.361Z,98727.84
2023-04-02T12:07:39.069Z,98729.97
2023-04-02T12:10:18.732Z,98705.53
2023-04-02T12:12:45.486Z,98733.16
2023-04-02T12:15:36.684Z,98730.31
2023-04-02T12:18:11.393Z,98736.22
2023-04-02T12:20:38.178Z,98740.66
2023-04-02T12:23:05.389Z,98739.25
2023-04-02T12:25:40.313Z,98737.66
2023-04-02T12:28:10.043Z,98746.41
2023-04-02T12:30:38.365Z,98725.25
2023-04-02T12:33:20.915Z,98750.88
2023-04-02T12:35:50.624Z,98743.97
2023-04-02T12:38:24.352Z,98769.97
2023-04-02T12:41:01.926Z,98751.44
2023-04-02T12:43:34.511Z,98757.31
2023-04-02T12:46:05.344Z,98740.19
2023-04-02T12:48:34.857Z,98675.94
2023-04-02T12:51:03.054Z,98733.91
2023-04-02T12:53:35.061Z,98683.84
2023-04-02T12:56:02.899Z,98766.25
2023-04-02T12:58:34.962Z,98775.81
2023-04-02T13:01:23.672Z,98772.25
2023-04-02T13:04:06.216Z,98791.78
2023-04-02T13:06:34.220Z,98775.06
2023-04-02T13:09:03.174Z,98791.69
2023-04-02T13:11:42.489Z,98771.97
2023-04-02T13:14:21.236Z,98805.03
2023-04-02T13:16:48.279Z,98801.56
2023-04-02T13:19:44.606Z,98804.16
2023-04-02T13:22:33.550Z,98760.81
2023-04-02T13:25:00.949Z,98812.84
2023-04-02T13:27:27.702Z,98754.16
2023-04-02T13:29:54.414Z,98792.75
2023-04-02T13:32:22.268Z,98815.34
2023-04-02T13:34:49.036Z,98806.13
2023-04-02T13:37:16.052Z,98814.25
2023-04-02T13:39:42.807Z,98805.19
2023-04-02T13:42:11.704Z,98747.81
2023-04-02T13:44:38.457Z,98824.19
2023-04-02T13:47:05.397Z,98843.47
2023-04-02T13:49:32.678Z,98808.69
2023-04-02T13:52:03.215Z,98801.88
2023-04-02T13:54:52.998Z,98825.75
2023-04-02T13:57:19.752Z,98833.53
2023-04-02T13:59:46.752Z,98853.31
2023-04-02T14:02:20.431Z,98747.25
2023-04-02T14:04:56.668Z,98862.47
2023-04-02T14:07:42.342Z,98852.72
2023-04-02T14:10:17.018Z,98843.28
2023-04-02T14:13:19.420Z,98855.88
2023-04-02T14:15:59.790Z,98856.81
2023-04-02T14:18:36.762Z,98858.38
2023-04-02T14:21:36.428Z,98695.22
2023-04-02T14:24:27.180Z,98877.63
2023-04-02T14:27:19.083Z,98224.94
2023-04-02T14:29:56.629Z,98886.34
2023-04-02T14:32:30.937Z,98848.00
2023-04-02T14:35:13.157Z,98813.47
2023-04-02T14:37:49.312Z,98866.97
2023-04-02T14:40:57.140Z,98901.22
2023-04-02T14:43:33.215Z,98783.06
2023-04-02T14:46:06.439Z,98902.84
2023-04-02T14:48:48.852Z,98905.59
2023-04-02T14:51:45.044Z,98911.50
2023-04-02T14:54:33.334Z,98922.63
2023-04-02T14:57:23.631Z,98916.13
2023-04-02T15:00:10.783Z,98925.34
2023-04-02T15:02:45.812Z,98900.91
2023-04-02T15:05:21.285Z,98940.88
2023-04-02T15:07:57.739Z,98935.56
2023-04-02T15:10:33.692Z,98942.63
2023-04-02T15:13:06.593Z,98938.16
2023-04-02T15:15:46.729Z,98933.91
2023-04-02T15:18:16.268Z,98887.72
2023-04-02T15:21:16.609Z,98958.22
2023-04-02T15:24:11.043Z,98968.44
2023-04-02T15:27:24.437Z,98962.69
2023-04-02T15:30:16.088Z,98967.34
2023-04-02T15:32:43.938Z,98973.78
2023-04-02T15:35:38.802Z,98973.91
2023-04-02T15:38:17.709Z,98981.47
2023-04-02T15:41:23.564Z,98979.81
2023-04-02T15:43:56.655Z,98983.16
2023-04-02T15:46:41.333Z,98988.25
2023-04-02T15:49:20.759Z,98989.91
2023-04-02T15:51:58.471Z,98996.28
2023-04-02T15:54:34.291Z,99001.72
2023-04-02T15:57:10.103Z,99004.97
2023-04-02T15:59:52.352Z,99013.16
2023-04-02T16:03:02.700Z,98982.81
2023-04-02T16:05:32.451Z,99019.97
2023-04-02T16:08:02.422Z,99016.78
2023-04-02T16:10:41.773Z,98930.69
2023-04-02T16:13:23.888Z,98981.81
2023-04-02T16:16:02.389Z,99036.25
2023-04-02T16:18:41.314Z,99030.41
2023-04-02T16:21:14.393Z,99025.00
2023-04-02T16:23:42.133Z,99008.06
2023-04-02T16:26:27.103Z,99030.69
2023-04-02T16:29:15.522Z,99044.28
2023-04-02T16:32:02.465Z,99051.44
2023-04-02T16:35:07.694Z,99055.38
2023-04-02T16:38:20.787Z,98898.91
2023-04-02T16:41:08.254Z,99060.91
2023-04-02T16:43:43.999Z,99066.03
2023-04-02T16:46:39.862Z,99019.47
2023-04-02T16:49:38.459Z,99030.50
2023-04-02T16:52:32.104Z,99086.19
2023-04-02T16:54:58.907Z,99084.03
2023-04-02T16:57:48.772Z,99073.00
2023-04-02T17:00:30.949Z,99101.66
2023-04-02T17:03:06.784Z,99112.41
2023-04-02T17:05:45.924Z,99103.16
2023-04-02T17:08:37.861Z,99123.34
2023-04-02T17:11:12.572Z,99143.63
2023-04-02T17:13:42.276Z,99045.00
2023-04-02T17:16:12.026Z,99128.72
2023-04-02T17:18:42.483Z,99090.53
2023-04-02T17:21:12.942Z,99132.72
2023-04-02T17:23:56.012Z,99131.75
2023-04-02T17:26:28.365Z,99155.94
2023-04-02T17:28:58.521Z,99110.75
2023-04-02T17:31:30.747Z,99100.72
2023-04-02T17:33:57.861Z,99163.94
2023-04-02T17:36:32.761Z,99155.56
2023-04-02T17:39:05.337Z,99140.78
2023-04-02T17:42:04.379Z,99163.66
2023-04-02T17:44:57.341Z,99156.19
2023-04-02T17:47:38.333Z,99108.06
2023-04-02T17:50:17.291Z,99159.84
2023-04-02T17:53:19.077Z,99160.03
2023-04-02T17:56:06.951Z,99159.50
2023-04-02T17:58:48.876Z,99155.09
2023-04-02T18:01:25.096Z,99110.88
2023-04-02T18:04:07.452Z,99163.44
2023-04-02T18:06:56.186Z,99164.13
2023-04-02T18:09:35.249Z,99160.56
2023-04-02T18:12:26.767Z,99164.78
2023-04-02T18:14:59.200Z,99163.44
2023-04-02T18:17:59.116Z,99176.28
2023-04-02T18:20:39.625Z,99170.78
2023-04-02T18:23:24.971Z,99173.00
2023-04-02T18:26:00.507Z,99183.41
2023-04-02T18:28:42.433Z,99177.00
2023-04-02T18:31:14.960Z,99178.56
2023-04-02T18:33:50.144Z,99171.00
2023-04-02T18:36:46.067Z,99093.28
2023-04-02T18:39:20.713Z,99182.25
2023-04-02T18:42:13.083Z,99158.94
2023-04-02T18:44:51.808Z,99186.38
2023-04-02T18:47:28.172Z,99187.00
2023-04-02T18:50:33.739Z,99191.78
2023-04-02T18:53:16.815Z,99188.91
2023-04-02T18:55:55.617Z,99189.84
2023-04-02T18:58:34.092Z,99194.47
2023-04-02T19:01:04.530Z,99201.44
2023-04-02T19:03:32.724Z,99194.75
2023-04-02T19:06:28.701Z,99198.31
2023-04-02T19:09:08.333Z,99146.19
2023-04-02T19:11:36.020Z,99202.53
2023-04-02T19:14:16.553Z,99212.19
2023-04-02T19:17:21.512Z,99214.91
2023-04-02T19:20:17.059Z,99210.69
2023-04-02T19:23:08.961Z,99214.28
2023-04-02T19:25:57.978Z,99222.91
2023-04-02T19:28:31.190Z,99216.47
2023-04-02T19:31:36.157Z,99234.16
2023-04-02T19:34:21.567Z,99225.22
2023-04-02T19:36:56.333Z,99151.47
2023-04-02T19:39:39.636Z,99174.66
2023-04-02T19:42:25.033Z,99173.28
2023-04-02T19:44:53.515Z,99199.84
2023-04-02T19:47:20.724Z,99165.34
2023-04-02T19:49:47.603Z,98968.38
2023-04-02T19:52:14.567Z,99209.06
2023-04-02T19:54:41.607Z,99169.19
2023-04-02T19:57:13.895Z,99143.34
2023-04-02T19:59:40.840Z,99223.84
2023-04-02T20:02:10.330Z,99138.44
2023-04-02T20:04:37.299Z,99180.97
2023-04-02T20:07:04.092Z,99232.53
2023-04-02T20:09:30.952Z,99121.47
2023-04-02T20:11:57.648Z,99230.19
2023-04-02T20:14:24.410Z,99234.38
2023-04-02T20:16:52.206Z,99197.88
2023-04-02T20:19:19.591Z,99205.16
2023-04-02T20:21:46.518Z,99231.91
2023-04-02T20:24:13.374Z,99181.28
2023-04-02T20:26:40.086Z,99209.59
2023-04-02T20:29:07.264Z,99269.59
2023-04-02T20:31:34.251Z,99204.63
2023-04-02T20:34:02.583Z,99037.84
2023-04-02T20:36:29.848Z,99253.34
2023-04-02T20:38:57.512Z,99233.22
2023-04-02T20:41:24.290Z,99239.09
2023-04-02T20:43:51.322Z,99245.59
2023-04-02T20:46:18.208Z,99261.22
2023-04-02T20:48:45.222Z,99260.81
2023-04-02T20:51:15.243Z,99263.72
2023-04-02T20:53:42.900Z,99254.25
2023-04-02T20:56:13.305Z,99260.84
2023-04-02T20:58:40.604Z,99259.22
2023-04-02T21:01:11.927Z,99270.56
2023-04-02T21:03:40.065Z,99269.94
2023-04-02T21:06:22.098Z,99187.63
2023-04-02T21:08:49.655Z,99234.72
2023-04-02T21:11:16.998Z,99275.22
2023-04-02T21:13:44.985Z,99195.47
2023-04-02T21:16:19.153Z,99319.03
2023-04-02T21:18:47.376Z,99236.69
2023-04-02T21:21:15.488Z,99260.19
2023-04-02T21:23:43.822Z,99190.75
2023-04-02T21:26:14.952Z,99267.78
2023-04-02T21:28:42.808Z,99258.28
2023-04-02T21:31:19.414Z,99266.00
2023-04-02T21:33:50.171Z,99277.53
2023-04-02T21:36:25.912Z,99262.97
2023-04-02T21:38:57.872Z,99293.41
2023-04-02T21:41:35.896Z,99271.47
2023-04-02T21:44:05.126Z,99211.31
2023-04-02T21:46:35.125Z,99287.31
2023-04-02T21:49:02.383Z,99266.03
2023-04-02T21:51:32.977Z,99320.22
2023-04-02T21:54:00.435Z,99192.19
2023-04-02T21:56:33.097Z,99289.38
2023-04-02T21:59:02.097Z,99275.16
2023-04-02T22:01:31.939Z,99289.63
2023-04-02T22:04:02.736Z,99292.53
2023-04-02T22:06:37.575Z,99250.47
2023-04-02T22:09:08.259Z,99300.81
2023-04-02T22:11:39.502Z,99294.03
2023-04-02T22:14:08.287Z,99294.75
2023-04-02T22:16:42.827Z,99301.63
2023-04-02T22:20:16.400Z,99290.63
2023-04-02T22:22:43.641Z,99307.75
2023-04-02T22:25:10.316Z,99302.78
2023-04-02T22:27:37.070Z,99286.34
2023-04-02T22:30:04.413Z,99217.78
2023-04-02T22:32:31.127Z,99141.53
2023-04-02T22:34:57.815Z,99310.06
2023-04-02T22:37:24.581Z,99309.13
2023-04-02T22:39:51.496Z,99310.84
2023-04-02T22:42:18.158Z,99300.50
2023-04-02T22:44:45.083Z,99304.41
2023-04-02T22:47:11.812Z,99233.94
2023-04-02T22:49:38.559Z,99325.59
2023-04-02T22:52:06.889Z,99314.47
2023-04-02T22:54:33.615Z,99167.19
2023-04-02T22:57:00.469Z,99309.63
2023-04-02T22:59:27.174Z,99285.06
2023-04-02T23:01:53.991Z,99292.44
2023-04-02T23:04:20.749Z,99245.06
2023-04-02T23:06:47.933Z,99282.91
2023-04-02T23:09:14.681Z,99284.16
2023-04-02T23:11:41.400Z,99277.47
2023-04-02T23:14:08.201Z,99224.59
2023-04-02T23:16:35.070Z,99120.72
2023-04-02T23:19:01.900Z,99277.38
2023-04-02T23:21:28.795Z,99253.25
2023-04-02T23:23:55.880Z,99313.25
2023-04-02T23:26:27.095Z,99307.31
2023-04-02T23:28:54.184Z,99322.06
2023-04-02T23:31:23.295Z,99325.56
2023-04-02T23:33:51.673Z,99336.59
2023-04-02T23:36:23.124Z,99324.06
2023-04-02T23:38:55.241Z,99350.56
2023-04-02T23:41:24.159Z,99330.25
2023-04-02T23:43:51.059Z,99319.75
2023-04-02T23:46:17.810Z,99333.94
2023-04-02T23:48:46.019Z,99296.63
2023-04-02T23:51:13.919Z,99331.53
2023-04-02T23:53:40.869Z,99303.59
2023-04-02T23:56:07.807Z,99277.72
2023-04-02T23:58:34.795Z,99331.69
